createdAt,value
2018-02-19T00:00:53.773Z,2.80
2018-02-19T00:03:20.722Z,2.80
2018-02-19T00:05:48.303Z,2.80
2018-02-19T00:08:14.506Z,2.70
2018-02-19T00:10:40.660Z,2.70
2018-02-19T00:13:06.860Z,2.60
2018-02-19T00:15:33.441Z,2.90
2018-02-19T00:17:59.622Z,2.60
2018-02-19T00:20:25.820Z,2.80
2018-02-19T00:22:52.014Z,2.80
2018-02-19T00:25:18.226Z,3.10
2018-02-19T00:27:45.515Z,2.80
2018-02-19T00:30:11.714Z,3.00
2018-02-19T00:32:38.691Z,2.90
2018-02-19T00:35:05.581Z,2.90
2018-02-19T00:37:31.816Z,2.40
2018-02-19T00:39:58.770Z,2.80
2018-02-19T00:42:25.344Z,2.90
2018-02-19T00:44:51.522Z,2.90
2018-02-19T00:47:17.710Z,2.50
2018-02-19T00:49:43.888Z,2.90
2018-02-19T00:52:10.076Z,2.80
2018-02-19T00:54:36.582Z,2.80
2018-02-19T00:57:03.528Z,2.80
2018-02-19T00:59:29.861Z,2.80
2018-02-19T01:01:56.389Z,2.80
2018-02-19T01:06:50.548Z,3.00
2018-02-19T01:09:17.167Z,2.20
2018-02-19T01:11:43.709Z,2.70
2018-02-19T01:14:09.890Z,3.10
2018-02-19T01:16:36.194Z,3.00
2018-02-19T01:19:03.192Z,3.00
2018-02-19T01:21:29.389Z,2.50
2018-02-19T01:23:55.614Z,3.10
2018-02-19T01:26:21.845Z,2.80
2018-02-19T01:28:48.423Z,2.90
2018-02-19T01:31:15.011Z,2.90
2018-02-19T01:33:41.194Z,2.80
2018-02-19T01:36:07.983Z,2.80
2018-02-19T01:38:34.995Z,2.80
2018-02-19T01:41:01.201Z,2.70
2018-02-19T01:43:27.385Z,2.60
2018-02-19T01:45:53.974Z,2.60
2018-02-19T01:48:20.181Z,2.80
2018-02-19T01:50:46.375Z,2.80
2018-02-19T01:53:13.284Z,2.90
2018-02-19T01:55:39.921Z,2.50
2018-02-19T01:58:06.505Z,2.70
2018-02-19T02:00:33.491Z,2.80
2018-02-19T02:02:59.690Z,2.80
2018-02-19T02:05:26.268Z,2.80
2018-02-19T02:07:52.472Z,2.80
2018-02-19T02:10:18.654Z,2.90
2018-02-19T02:12:45.577Z,2.80
2018-02-19T02:15:12.146Z,2.80
2018-02-19T02:17:39.152Z,2.70
2018-02-19T02:20:05.360Z,2.70
2018-02-19T02:22:32.678Z,2.70
2018-02-19T02:24:59.271Z,2.80
2018-02-19T02:27:25.467Z,2.60
2018-02-19T02:29:51.613Z,2.80
2018-02-19T02:32:17.876Z,2.70
2018-02-19T02:34:44.113Z,2.60
2018-02-19T02:37:10.291Z,2.80
2018-02-19T02:39:37.231Z,2.70
2018-02-19T02:42:03.433Z,2.60
2018-02-19T02:44:30.407Z,2.80
2018-02-19T02:46:56.580Z,2.80
2018-02-19T02:49:22.765Z,3.00
2018-02-19T02:51:48.941Z,2.70
2018-02-19T02:54:15.159Z,2.80
2018-02-19T02:56:41.334Z,2.90
2018-02-19T02:59:08.296Z,2.90
2018-02-19T03:01:34.473Z,2.70
2018-02-19T03:04:00.660Z,3.30
2018-02-19T03:06:26.886Z,3.00
2018-02-19T03:08:53.491Z,2.90
2018-02-19T03:11:20.419Z,2.80
2018-02-19T03:13:46.583Z,2.70
2018-02-19T03:16:12.820Z,2.70
2018-02-19T03:18:38.977Z,2.90
2018-02-19T03:21:05.151Z,3.10
2018-02-19T03:23:32.077Z,3.00
2018-02-19T03:25:58.276Z,2.90
2018-02-19T03:28:24.483Z,3.00
2018-02-19T03:30:50.691Z,3.00
2018-02-19T03:33:16.910Z,3.10
2018-02-19T03:35:43.836Z,3.00
2018-02-19T03:38:10.021Z,3.00
2018-02-19T03:40:36.254Z,3.30
2018-02-19T03:43:02.438Z,3.00
2018-02-19T03:45:29.395Z,3.00
2018-02-19T03:47:55.618Z,3.00
2018-02-19T03:50:22.573Z,3.00
2018-02-19T03:52:48.749Z,2.90
2018-02-19T03:55:15.687Z,2.90
2018-02-19T03:57:42.234Z,2.90
2018-02-19T04:00:09.159Z,2.90
2018-02-19T04:02:35.352Z,3.20
2018-02-19T04:05:01.931Z,3.00
2018-02-19T04:07:28.136Z,3.20
2018-02-19T04:09:54.705Z,3.10
2018-02-19T04:12:21.293Z,3.00
2018-02-19T04:14:47.444Z,3.10
2018-02-19T04:17:13.994Z,3.10
2018-02-19T04:19:40.519Z,3.20
2018-02-19T04:22:06.715Z,2.80
2018-02-19T04:24:33.286Z,3.00
2018-02-19T04:26:59.494Z,3.00
2018-02-19T04:29:26.071Z,3.10
2018-02-19T04:31:52.609Z,2.80
2018-02-19T04:34:18.783Z,2.70
2018-02-19T04:36:45.730Z,2.80
2018-02-19T04:39:12.736Z,2.80
2018-02-19T04:41:39.310Z,2.50
2018-02-19T04:44:06.353Z,2.50
2018-02-19T04:46:35.170Z,2.40
2018-02-19T04:49:01.347Z,2.40
2018-02-19T04:51:27.518Z,2.30
2018-02-19T04:53:54.819Z,2.30
2018-02-19T04:56:21.077Z,2.50
2018-02-19T04:58:47.226Z,2.60
2018-02-19T05:01:13.409Z,2.70
2018-02-19T05:03:39.645Z,2.30
2018-02-19T05:06:05.824Z,2.40
2018-02-19T05:08:32.127Z,2.40
2018-02-19T05:10:59.102Z,2.40
2018-02-19T05:13:25.310Z,2.60
2018-02-19T05:15:52.254Z,2.50
2018-02-19T05:18:19.201Z,2.40
2018-02-19T05:20:46.486Z,2.40
2018-02-19T05:23:13.037Z,2.50
2018-02-19T05:28:07.520Z,2.40
2018-02-19T05:30:33.712Z,2.40
2018-02-19T05:33:00.685Z,2.40
2018-02-19T05:35:26.981Z,2.40
2018-02-19T05:37:53.211Z,2.50
2018-02-19T05:40:19.523Z,2.40
2018-02-19T05:42:45.741Z,2.40
2018-02-19T05:45:11.978Z,2.30
2018-02-19T05:47:38.164Z,2.40
2018-02-19T05:50:04.391Z,2.60
2018-02-19T05:52:30.626Z,2.40
2018-02-19T05:54:56.882Z,2.20
2018-02-19T05:57:23.069Z,2.30
2018-02-19T05:59:49.985Z,2.40
2018-02-19T06:02:16.211Z,2.70
2018-02-19T06:07:10.275Z,2.30
2018-02-19T06:09:37.240Z,2.50
2018-02-19T06:12:04.242Z,2.50
2018-02-19T06:14:30.467Z,2.60
2018-02-19T06:16:56.638Z,2.50
2018-02-19T06:19:23.561Z,2.50
2018-02-19T06:21:49.766Z,2.70
2018-02-19T06:24:16.775Z,2.50
2018-02-19T06:26:43.344Z,2.50
2018-02-19T06:29:10.062Z,2.60
2018-02-19T06:31:36.277Z,2.30
2018-02-19T06:34:02.503Z,3.00
2018-02-19T06:36:29.110Z,2.60
2018-02-19T06:38:55.344Z,2.40
2018-02-19T06:41:22.625Z,2.50
2018-02-19T06:43:48.813Z,2.60
2018-02-19T06:46:15.085Z,2.50
2018-02-19T06:48:41.290Z,2.30
2018-02-19T06:51:07.820Z,2.50
2018-02-19T06:53:33.973Z,2.90
2018-02-19T06:56:00.135Z,2.50
2018-02-19T06:58:27.098Z,2.50
2018-02-19T07:00:53.689Z,2.40
2018-02-19T07:03:21.354Z,2.40
2018-02-19T07:05:49.091Z,2.50
2018-02-19T07:08:15.280Z,2.50
2018-02-19T07:10:42.214Z,2.50
2018-02-19T07:13:09.160Z,2.60
2018-02-19T07:15:35.781Z,2.50
2018-02-19T07:18:02.033Z,2.70
2018-02-19T07:20:29.099Z,2.90
2018-02-19T07:22:55.304Z,2.90
2018-02-19T07:25:22.258Z,2.70
2018-02-19T07:28:04.092Z,2.70
2018-02-19T07:30:30.371Z,2.70
2018-02-19T07:32:56.551Z,2.70
2018-02-19T07:35:22.742Z,2.50
2018-02-19T07:37:49.322Z,2.80
2018-02-19T07:40:15.504Z,2.90
2018-02-19T07:42:42.506Z,2.90
2018-02-19T07:45:08.725Z,2.70
2018-02-19T07:47:35.219Z,2.90
2018-02-19T07:50:01.815Z,2.90
2018-02-19T07:52:28.005Z,3.50
2018-02-19T07:54:54.210Z,3.70
2018-02-19T07:57:20.779Z,3.40
2018-02-19T07:59:46.935Z,3.60
2018-02-19T08:02:13.126Z,3.70
2018-02-19T08:04:39.320Z,3.60
2018-02-19T08:07:06.261Z,4.00
2018-02-19T08:09:32.421Z,3.70
2018-02-19T08:11:58.639Z,4.70
2018-02-19T08:14:25.556Z,5.20
2018-02-19T08:16:52.246Z,5.30
2018-02-19T08:19:18.494Z,5.30
2018-02-19T08:21:44.700Z,5.60
2018-02-19T08:24:10.929Z,5.30
2018-02-19T08:26:37.118Z,4.90
2018-02-19T08:29:03.339Z,4.70
2018-02-19T08:31:29.524Z,4.60
2018-02-19T08:33:55.736Z,4.70
2018-02-19T08:36:22.712Z,4.70
2018-02-19T08:38:49.634Z,5.00
2018-02-19T08:41:15.818Z,5.40
2018-02-19T08:43:42.724Z,6.00
2018-02-19T08:46:09.283Z,6.00
2018-02-19T08:48:35.446Z,6.10
2018-02-19T08:51:02.404Z,6.20
2018-02-19T08:53:29.352Z,6.30
2018-02-19T08:55:56.456Z,6.10
2018-02-19T08:58:22.599Z,6.20
2018-02-19T09:00:48.790Z,6.30
2018-02-19T09:03:14.988Z,6.40
2018-02-19T09:05:41.190Z,5.80
2018-02-19T09:08:08.113Z,6.40
2018-02-19T09:10:34.323Z,6.50
2018-02-19T09:13:00.474Z,6.30
2018-02-19T09:15:26.638Z,6.30
2018-02-19T09:17:53.602Z,6.90
2018-02-19T09:20:19.791Z,6.90
2018-02-19T09:22:46.387Z,6.70
2018-02-19T09:25:12.543Z,6.30
2018-02-19T09:27:38.702Z,5.90
2018-02-19T09:30:05.644Z,6.20
2018-02-19T09:32:32.213Z,6.30
2018-02-19T09:34:58.428Z,6.40
2018-02-19T09:37:24.609Z,6.80
2018-02-19T09:39:50.820Z,7.20
2018-02-19T09:42:17.063Z,7.10
2018-02-19T09:44:43.223Z,7.40
2018-02-19T09:47:10.176Z,7.80
2018-02-19T09:49:37.103Z,8.00
2018-02-19T09:52:03.302Z,8.20
2018-02-19T09:54:29.478Z,8.40
2018-02-19T09:56:56.411Z,8.30
2018-02-19T09:59:23.359Z,8.30
2018-02-19T10:01:49.909Z,7.90
2018-02-19T10:04:16.824Z,7.90
2018-02-19T10:06:43.346Z,7.70
2018-02-19T10:09:09.552Z,7.70
2018-02-19T10:11:36.131Z,8.10
2018-02-19T10:14:02.297Z,8.30
2018-02-19T10:16:28.459Z,8.20
2018-02-19T10:18:54.654Z,7.70
2018-02-19T10:21:20.854Z,8.00
2018-02-19T10:23:47.774Z,7.90
2018-02-19T10:26:13.969Z,7.80
2018-02-19T10:28:40.158Z,7.80
2018-02-19T10:31:07.094Z,7.90
2018-02-19T10:33:33.272Z,8.00
2018-02-19T10:36:00.553Z,8.00
2018-02-19T10:38:27.131Z,7.90
2018-02-19T10:40:54.070Z,8.10
2018-02-19T10:43:20.972Z,7.90
2018-02-19T10:45:47.189Z,7.90
2018-02-19T10:48:13.333Z,7.90
2018-02-19T10:50:39.567Z,8.00
2018-02-19T10:53:05.745Z,8.10
2018-02-19T10:55:31.951Z,7.70
2018-02-19T10:57:58.887Z,7.80
2018-02-19T11:00:27.898Z,7.80
2018-02-19T11:02:54.809Z,7.70
2018-02-19T11:05:21.004Z,7.60
2018-02-19T11:07:47.194Z,7.70
2018-02-19T11:10:14.147Z,7.70
2018-02-19T11:12:40.667Z,7.70
2018-02-19T11:15:06.870Z,7.90
2018-02-19T11:17:33.075Z,8.00
2018-02-19T11:19:59.303Z,8.30
2018-02-19T11:22:25.497Z,8.50
2018-02-19T11:24:52.915Z,10.10
2018-02-19T11:27:19.482Z,10.80
2018-02-19T11:29:46.374Z,10.90
2018-02-19T11:32:12.585Z,11.30
2018-02-19T11:34:38.824Z,11.60
2018-02-19T11:37:04.961Z,11.70
2018-02-19T11:39:31.171Z,11.70
2018-02-19T11:41:57.399Z,11.80
2018-02-19T11:44:23.673Z,10.80
2018-02-19T11:46:49.862Z,9.80
2018-02-19T11:49:16.092Z,9.30
2018-02-19T11:51:42.272Z,9.10
2018-02-19T11:54:08.533Z,8.20
2018-02-19T11:56:34.728Z,8.30
2018-02-19T11:59:01.298Z,8.10
2018-02-19T12:01:27.514Z,8.00
2018-02-19T12:03:54.440Z,7.90
2018-02-19T12:06:21.034Z,7.60
2018-02-19T12:08:47.210Z,7.50
2018-02-19T12:11:13.423Z,7.20
2018-02-19T12:13:40.032Z,7.20
2018-02-19T12:16:06.250Z,7.10
2018-02-19T12:18:32.463Z,8.40
2018-02-19T12:20:58.722Z,9.60
2018-02-19T12:23:24.926Z,9.50
2018-02-19T12:25:51.207Z,9.30
2018-02-19T12:28:17.846Z,8.90
2018-02-19T12:30:44.025Z,8.80
2018-02-19T12:33:10.233Z,8.10
2018-02-19T12:35:37.171Z,8.50
2018-02-19T12:38:04.291Z,8.50
2018-02-19T12:40:30.531Z,9.50
2018-02-19T12:42:56.679Z,10.30
2018-02-19T12:45:23.608Z,10.70
2018-02-19T12:47:49.773Z,10.00
2018-02-19T12:50:15.954Z,9.60
2018-02-19T12:52:42.151Z,9.30
2018-02-19T12:55:08.413Z,9.00
2018-02-19T12:57:34.696Z,9.60
2018-02-19T13:00:00.921Z,8.40
2018-02-19T13:02:27.115Z,8.40
2018-02-19T13:04:53.317Z,8.20
2018-02-19T13:07:19.546Z,8.20
2018-02-19T13:09:45.784Z,8.30
2018-02-19T13:12:11.977Z,7.90
2018-02-19T13:14:38.286Z,7.70
2018-02-19T13:17:05.247Z,7.70
2018-02-19T13:19:31.465Z,7.70
2018-02-19T13:21:58.403Z,7.80
2018-02-19T13:24:25.356Z,8.00
2018-02-19T13:26:51.572Z,8.00
2018-02-19T13:29:18.541Z,7.80
2018-02-19T13:31:44.736Z,7.80
2018-02-19T13:34:10.909Z,7.50
2018-02-19T13:36:37.073Z,7.60
2018-02-19T13:39:03.381Z,7.20
2018-02-19T13:41:29.643Z,7.20
2018-02-19T13:43:57.375Z,8.20
2018-02-19T13:46:23.591Z,8.20
2018-02-19T13:48:49.767Z,8.60
2018-02-19T13:51:16.060Z,8.50
2018-02-19T13:53:42.274Z,7.50
2018-02-19T13:56:09.295Z,7.40
2018-02-19T13:58:36.341Z,7.50
2018-02-19T14:01:03.285Z,7.50
2018-02-19T14:03:30.196Z,7.20
2018-02-19T14:05:56.381Z,7.20
2018-02-19T14:08:22.662Z,7.00
2018-02-19T14:10:48.847Z,6.80
2018-02-19T14:13:15.079Z,6.50
2018-02-19T14:15:41.329Z,6.40
2018-02-19T14:18:07.616Z,6.40
2018-02-19T14:20:33.764Z,6.20
2018-02-19T14:23:00.146Z,6.20
2018-02-19T14:25:27.071Z,6.10
2018-02-19T14:27:53.226Z,6.10
2018-02-19T14:30:19.442Z,6.30
2018-02-19T14:32:46.398Z,6.30
2018-02-19T14:35:12.590Z,6.30
2018-02-19T14:37:38.815Z,6.20
2018-02-19T14:40:05.063Z,6.30
2018-02-19T14:42:31.316Z,6.40
2018-02-19T14:44:57.733Z,6.30
2018-02-19T14:47:23.923Z,6.30
2018-02-19T14:49:51.774Z,6.30
2018-02-19T14:52:17.989Z,6.40
2018-02-19T14:54:44.964Z,6.40
2018-02-19T14:57:11.180Z,6.30
2018-02-19T14:59:37.388Z,6.10
2018-02-19T15:02:04.405Z,6.00
2018-02-19T15:04:30.746Z,6.00
2018-02-19T15:06:57.336Z,6.10
2018-02-19T15:09:23.576Z,6.10
2018-02-19T15:11:49.783Z,6.20
2018-02-19T15:14:15.996Z,6.10
2018-02-19T15:16:44.036Z,6.20
2018-02-19T15:19:10.297Z,6.10
2018-02-19T15:21:38.263Z,6.20
2018-02-19T15:24:05.259Z,6.10
2018-02-19T15:26:31.465Z,6.10
2018-02-19T15:28:57.662Z,6.10
2018-02-19T15:31:24.636Z,6.00
2018-02-19T15:33:50.834Z,6.00
2018-02-19T15:36:17.778Z,5.90
2018-02-19T15:38:44.039Z,5.90
2018-02-19T15:41:10.202Z,5.80
2018-02-19T15:43:36.605Z,5.50
2018-02-19T15:46:02.857Z,5.50
2018-02-19T15:48:29.043Z,5.30
2018-02-19T15:50:57.792Z,5.10
2018-02-19T15:53:25.038Z,5.00
2018-02-19T15:55:51.233Z,4.80
2018-02-19T15:58:17.472Z,4.80
2018-02-19T16:00:43.714Z,4.70
2018-02-19T16:03:09.958Z,4.60
2018-02-19T16:05:36.135Z,4.70
2018-02-19T16:08:02.335Z,4.60
2018-02-19T16:10:28.538Z,4.60
2018-02-19T16:12:54.702Z,4.70
2018-02-19T16:15:21.769Z,4.60
2018-02-19T16:17:47.972Z,4.70
2018-02-19T16:20:14.241Z,4.70
2018-02-19T16:22:40.440Z,4.70
2018-02-19T16:25:07.416Z,4.60
2018-02-19T16:27:33.621Z,4.60
2018-02-19T16:30:01.790Z,4.50
2018-02-19T16:32:28.718Z,4.50
2018-02-19T16:34:57.051Z,4.40
2018-02-19T16:37:23.231Z,4.40
2018-02-19T16:39:49.454Z,4.30
2018-02-19T16:42:15.650Z,4.30
2018-02-19T16:44:41.862Z,4.30
2018-02-19T16:47:08.079Z,4.20
2018-02-19T16:49:34.292Z,4.30
2018-02-19T16:52:01.372Z,4.30
2018-02-19T16:54:27.873Z,4.20
2018-02-19T16:56:54.082Z,4.20
2018-02-19T16:59:20.322Z,4.20
2018-02-19T17:01:47.368Z,4.20
2018-02-19T17:04:15.211Z,4.20
2018-02-19T17:06:41.477Z,4.10
2018-02-19T17:09:08.516Z,4.00
2018-02-19T17:11:35.560Z,4.10
2018-02-19T17:14:02.489Z,4.10
2018-02-19T17:16:28.757Z,4.20
2018-02-19T17:18:54.966Z,4.20
2018-02-19T17:21:21.943Z,4.10
2018-02-19T17:23:48.148Z,4.10
2018-02-19T17:26:15.231Z,4.10
2018-02-19T17:28:41.475Z,4.10
2018-02-19T17:31:07.691Z,4.10
2018-02-19T17:33:33.963Z,4.20
2018-02-19T17:36:00.212Z,4.20
2018-02-19T17:38:27.211Z,4.10
2018-02-19T17:40:53.421Z,4.10
2018-02-19T17:43:19.713Z,4.10
2018-02-19T17:45:46.689Z,4.10
2018-02-19T17:48:12.866Z,4.00
2018-02-19T17:50:39.077Z,4.00
2018-02-19T17:53:05.286Z,3.90
2018-02-19T17:55:31.512Z,4.00
2018-02-19T17:57:57.761Z,4.00
2018-02-19T18:00:24.021Z,4.00
2018-02-19T18:02:50.212Z,4.00
2018-02-19T18:05:16.554Z,4.00
2018-02-19T18:07:42.786Z,4.00
2018-02-19T18:10:09.012Z,4.00
2018-02-19T18:12:35.246Z,4.00
2018-02-19T18:15:01.462Z,3.90
2018-02-19T18:17:27.678Z,3.90
2018-02-19T18:19:53.889Z,3.90
2018-02-19T18:22:20.095Z,3.90
2018-02-19T18:24:46.318Z,4.00
2018-02-19T18:27:12.583Z,4.00
2018-02-19T18:29:39.195Z,3.90
2018-02-19T18:32:05.482Z,3.90
2018-02-19T18:34:31.698Z,3.90
2018-02-19T18:36:57.929Z,3.80
2018-02-19T18:39:24.103Z,3.70
2018-02-19T18:41:50.331Z,3.80
2018-02-19T18:44:18.059Z,3.80
2018-02-19T18:46:44.366Z,4.00
2018-02-19T18:49:10.650Z,4.10
2018-02-19T18:51:36.942Z,4.10
2018-02-19T18:54:03.365Z,4.10
2018-02-19T18:56:29.603Z,4.10
2018-02-19T18:58:55.853Z,4.10
2018-02-19T19:01:22.054Z,4.10
2018-02-19T19:03:48.303Z,4.00
2018-02-19T19:06:14.570Z,3.90
2018-02-19T19:08:53.091Z,3.90
2018-02-19T19:11:19.316Z,3.90
2018-02-19T19:13:46.272Z,4.00
2018-02-19T19:16:13.244Z,3.90
2018-02-19T19:18:40.454Z,3.70
2018-02-19T19:21:06.710Z,3.70
2018-02-19T19:23:32.939Z,3.60
2018-02-19T19:25:59.394Z,3.60
2018-02-19T19:28:25.578Z,3.50
2018-02-19T19:30:51.847Z,3.60
2018-02-19T19:33:18.130Z,3.50
2018-02-19T19:35:44.375Z,3.50
2018-02-19T19:38:11.365Z,3.50
2018-02-19T19:40:37.618Z,3.50
2018-02-19T19:43:03.867Z,3.60
2018-02-19T19:45:30.113Z,3.70
2018-02-19T19:47:57.119Z,3.70
2018-02-19T19:50:23.390Z,3.70
2018-02-19T19:52:49.585Z,3.70
2018-02-19T19:55:15.785Z,3.60
2018-02-19T19:57:41.969Z,3.50
2018-02-19T20:00:08.350Z,3.40
2018-02-19T20:02:34.577Z,3.40
2018-02-19T20:05:00.821Z,3.40
2018-02-19T20:07:27.055Z,3.40
2018-02-19T20:09:53.332Z,3.50
2018-02-19T20:12:20.278Z,3.50
2018-02-19T20:14:46.954Z,3.50
2018-02-19T20:17:13.224Z,3.50
2018-02-19T20:19:39.882Z,3.70
2018-02-19T20:22:06.877Z,3.80
2018-02-19T20:24:33.085Z,3.70
2018-02-19T20:26:59.300Z,3.70
2018-02-19T20:29:25.668Z,3.60
2018-02-19T20:31:51.974Z,3.60
2018-02-19T20:34:18.548Z,3.70
2018-02-19T20:36:44.751Z,3.60
2018-02-19T20:39:10.968Z,3.50
2018-02-19T20:41:37.230Z,3.40
2018-02-19T20:44:03.488Z,3.40
2018-02-19T20:46:29.759Z,3.30
2018-02-19T20:48:56.076Z,3.40
2018-02-19T20:51:23.159Z,3.50
2018-02-19T20:53:49.768Z,3.50
2018-02-19T20:56:16.110Z,3.60
2018-02-19T20:58:42.360Z,3.50
2018-02-19T21:01:09.359Z,3.50
2018-02-19T21:03:36.427Z,3.30
2018-02-19T21:06:02.856Z,3.30
2018-02-19T21:08:29.491Z,3.30
2018-02-19T21:10:56.782Z,3.40
2018-02-19T21:13:23.003Z,3.40
2018-02-19T21:15:49.262Z,3.50
2018-02-19T21:18:15.471Z,3.60
2018-02-19T21:20:41.719Z,3.60
2018-02-19T21:23:08.050Z,3.60
2018-02-19T21:25:34.310Z,3.50
2018-02-19T21:28:05.721Z,3.40
2018-02-19T21:30:32.027Z,3.30
2018-02-19T21:32:58.217Z,3.30
2018-02-19T21:35:25.236Z,3.40
2018-02-19T21:37:51.455Z,3.40
2018-02-19T21:40:17.682Z,3.40
2018-02-19T21:42:43.982Z,3.40
2018-02-19T21:45:10.211Z,3.40
2018-02-19T21:47:36.620Z,3.30
2018-02-19T21:50:03.617Z,3.30
2018-02-19T21:52:29.900Z,3.30
2018-02-19T21:54:56.811Z,3.30
2018-02-19T21:57:23.124Z,3.30
2018-02-19T21:59:49.338Z,3.40
2018-02-19T22:02:16.291Z,3.40
2018-02-19T22:04:42.534Z,3.40
2018-02-19T22:07:08.814Z,3.40
2018-02-19T22:09:36.210Z,3.40
2018-02-19T22:12:02.398Z,3.40
2018-02-19T22:14:28.984Z,3.40
2018-02-19T22:16:56.203Z,3.30
2018-02-19T22:19:22.396Z,3.30
2018-02-19T22:21:48.601Z,3.30
2018-02-19T22:24:14.862Z,3.30
2018-02-19T22:26:41.067Z,3.20
2018-02-19T22:29:07.301Z,3.20
2018-02-19T22:31:33.556Z,3.20
2018-02-19T22:34:00.556Z,3.10
2018-02-19T22:36:26.766Z,3.10
2018-02-19T22:38:52.962Z,3.10
2018-02-19T22:41:19.916Z,3.00
2018-02-19T22:43:47.363Z,2.80
2018-02-19T22:46:14.311Z,2.90
2018-02-19T22:48:41.461Z,2.90
2018-02-19T22:51:08.406Z,2.90
2018-02-19T22:53:36.142Z,2.80
2018-02-19T22:56:02.352Z,2.80
2018-02-19T22:58:28.558Z,2.80
2018-02-19T23:00:54.810Z,2.80
2018-02-19T23:03:20.998Z,2.80
2018-02-19T23:05:48.048Z,2.70
2018-02-19T23:08:14.240Z,2.60
2018-02-19T23:10:40.591Z,2.70
2018-02-19T23:13:07.546Z,2.70
2018-02-19T23:15:34.914Z,2.60
2018-02-19T23:18:01.139Z,2.70
2018-02-19T23:20:28.073Z,2.60
2018-02-19T23:22:54.995Z,2.60
2018-02-19T23:25:21.300Z,2.80
2018-02-19T23:27:47.538Z,2.60
2018-02-19T23:30:13.718Z,2.60
2018-02-19T23:32:39.882Z,2.50
2018-02-19T23:35:06.115Z,2.60
2018-02-19T23:37:32.322Z,2.50
2018-02-19T23:39:58.514Z,2.40
2018-02-19T23:42:25.144Z,2.40
2018-02-19T23:44:51.403Z,2.30
2018-02-19T23:47:17.610Z,2.40
2018-02-19T23:49:44.577Z,2.40
2018-02-19T23:52:10.772Z,2.30
2018-02-19T23:54:37.358Z,2.30
2018-02-19T23:57:03.628Z,2.30
2018-02-19T23:59:29.842Z,1.90
